Latest Coastal Weather Observations for Frederick Reef

IDQ60701

Issued at 9:22 am EST Thursday 25 August 2016 (issued every 10 minutes, with the page automatically refreshed every 10 minutes)

About coastal observations | Map of coastal stations | Coastal observations for QLD | Marine services | Other Formats
Station Details ID: 200701 Name: FREDERICK REEF Lat: -20.94 Lon: 154.40 Height: 4.9 m
Data from the previous 72 hours. | See also: Recent months for locations in Queensland
Date/Time
EST
Temp
°C
Wind Pressure Rain since
9am
mm
Weather Cloud Vis
km
Sea
Height
m
Swell
Dir  Spd
kts
Gust
kts
hPa Trend Height
m
Period
s
Dir
25/09:00am 20.6 S 17 - 1014.1 - - - - - - - - -
25/08:00am 20.1 S 22 - 1013.6 - - - - - - - - -
25/07:00am 20.1 S 19 - 1013.1 - - - - - - - - -
25/06:00am 20.5 SSW 26 - 1011.9 - - - - - - - - -
25/05:00am 24.3 NNW 17 - 1010.7 - - - - - - - - -
25/04:00am 24.3 N 18 - 1010.3 - - - - - - - - -
25/03:00am 24.2 N 18 - 1010.0 - - - - - - - - -
25/02:00am 24.3 N 16 - 1010.7 - - - - - - - - -
25/01:00am 24.3 N 18 - 1011.4 - - - - - - - - -
25/12:00am 24.3 NNW 18 - 1011.8 - - - - - - - - -
 
Date/Time
EST
Temp
°C
Wind Pressure Rain since
9am
mm
Weather Cloud Vis
km
Sea
Height
m
Swell
Dir  Spd
kts
Gust
kts
hPa Trend Height
m
Period
s
Dir
24/11:00pm 24.2 N 17 - 1012.1 - - - - - - - - -
24/10:00pm 24.3 NNW 15 - 1012.4 - - - - - - - - -
24/09:00pm 24.3 NNW 15 - 1012.5 - - - - - - - - -
24/08:00pm 24.4 NNW 13 - 1012.5 - - - - - - - - -
24/07:00pm 24.4 NNW 15 - 1012.5 - - - - - - - - -
24/06:00pm 24.5 NNW 16 17 1011.8 - - - - - - - - -
24/05:30pm 24.5 NNW 17 19 1011.4 - - - - - - - - -
24/05:00pm 24.6 N 17 19 1011.3 - - - - - - - - -
24/04:30pm 24.4 N 17 19 1011.1 - - - - - - - - -
24/04:00pm 24.5 N 19 21 1010.8 - - - - - - - - -
24/03:30pm 24.5 N 17 21 1010.5 - - - - - - - - -
24/03:00pm 24.6 N 19 23 1010.5 - - - - - - - - -
24/02:30pm 24.7 N 21 23 1010.5 - - - - - - - - -
24/02:00pm 24.7 N 21 24 1010.6 - - - - - - - - -
24/01:30pm 24.6 N 20 23 1010.7 - - - - - - - - -
24/01:00pm 24.5 N 21 23 1011.1 - - - - - - - - -
24/12:30pm 24.6 N 21 24 1011.4 - - - - - - - - -
24/12:00pm 24.6 N 20 23 1011.5 - - - - - - - - -
24/11:30am 24.4 N 23 25 1012.1 - - - - - - - - -
24/11:00am 24.3 N 21 23 1012.5 - - - - - - - - -
24/10:30am 24.3 N 22 25 1012.8 - - - - - - - - -
24/10:00am 24.2 N 21 22 1013.1 - - - - - - - - -
24/09:30am 24.2 NNE 22 24 1013.2 - - - - - - - - -
24/09:00am 24.3 NNE 20 - 1013.3 - - - - - - - - -
24/08:00am 24.0 NNE 19 - 1013.0 - - - - - - - - -
24/07:00am 23.9 NNE 22 - 1012.2 - - - - - - - - -
24/06:00am 24.0 NNE 20 - 1011.9 - - - - - - - - -
24/05:00am 23.6 NNE 21 - 1011.0 - - - - - - - - -
24/04:00am 23.6 NNE 20 - 1010.8 - - - - - - - - -
24/03:00am 23.8 NNE 20 - 1011.2 - - - - - - - - -
24/02:00am 23.9 NNE 21 - 1011.6 - - - - - - - - -
24/01:00am 23.8 NNE 22 - 1012.3 - - - - - - - - -
24/12:00am 23.8 NNE 21 - 1013.0 - - - - - - - - -
 
Date/Time
EST
Temp
°C
Wind Pressure Rain since
9am
mm
Weather Cloud Vis
km
Sea
Height
m
Swell
Dir  Spd
kts
Gust
kts
hPa Trend Height
m
Period
s
Dir
23/11:00pm 23.8 NNE 21 - 1013.4 - - - - - - - - -
23/10:00pm 24.0 NNE 20 23 1013.9 - - - - - - - - -
23/09:30pm 23.9 NE 20 23 1013.9 - - - - - - - - -
23/09:00pm 23.9 NE 19 21 1013.8 - - - - - - - - -
23/08:30pm 23.8 NNE 20 22 1013.8 - - - - - - - - -
23/08:00pm 24.0 NE 17 19 1014.1 - - - - - - - - -
23/07:30pm 23.7 NE 20 21 1013.7 - - - - - - - - -
23/07:00pm 23.9 NE 21 23 1013.5 - - - - - - - - -
23/06:30pm 23.6 NE 18 21 1013.1 - - - - - - - - -
23/06:00pm 23.8 NE 19 21 1012.8 - - - - - - - - -
23/05:30pm 23.8 NE 18 20 1012.6 - - - - - - - - -
23/05:00pm 23.8 NE 19 21 1012.4 - - - - - - - - -
23/04:30pm 23.8 NE 20 23 1012.0 - - - - - - - - -
23/04:00pm 23.7 NE 20 22 1011.7 - - - - - - - - -
23/03:30pm 23.9 NE 20 23 1011.5 - - - - - - - - -
23/03:00pm 23.8 ENE 21 23 1011.2 - - - - - - - - -
23/02:30pm 23.8 ENE 20 22 1011.4 - - - - - - - - -
23/02:00pm 23.9 NE 18 21 1011.7 - - - - - - - - -
23/01:30pm 23.8 ENE 19 21 1012.1 - - - - - - - - -
23/01:00pm 23.9 ENE 19 20 1012.3 - - - - - - - - -
23/12:30pm 23.6 ENE 20 22 1012.6 - - - - - - - - -
23/12:00pm 23.8 ENE 19 21 1013.1 - - - - - - - - -
23/11:30am 23.9 ENE 18 19 1013.9 - - - - - - - - -
23/11:00am 23.8 ENE 18 20 1014.4 - - - - - - - - -
23/10:30am 23.8 ENE 17 19 1014.6 - - - - - - - - -
23/10:00am 24.2 ENE 16 19 1015.0 - - - - - - - - -
23/09:30am 23.9 ENE 17 20 1015.1 - - - - - - - - -
23/09:00am 24.0 ENE 17 19 1015.2 - - - - - - - - -
23/08:30am 23.9 ENE 16 18 1015.2 - - - - - - - - -
23/08:00am 23.9 ENE 16 18 1015.1 - - - - - - - - -
23/07:00am 24.0 ENE 15 - 1014.9 - - - - - - - - -
23/06:00am 23.7 ENE 16 - 1014.4 - - - - - - - - -
23/05:00am 23.7 ENE 16 - 1013.6 - - - - - - - - -
23/04:00am 23.5 ENE 17 - 1013.2 - - - - - - - - -
23/03:00am 23.2 ENE 16 - 1013.0 - - - - - - - - -
23/02:00am 22.6 NE 19 - 1013.4 - - - - - - - - -
23/01:00am 23.4 ENE 17 - 1013.7 - - - - - - - - -
23/12:00am 23.5 ENE 18 - 1014.5 - - - - - - - - -
 
Date/Time
EST
Temp
°C
Wind Pressure Rain since
9am
mm
Weather Cloud Vis
km
Sea
Height
m
Swell
Dir  Spd
kts
Gust
kts
hPa Trend Height
m
Period
s
Dir
22/11:00pm 22.8 E 14 - 1015.0 - - - - - - - - -
22/10:00pm 23.3 ENE 14 - 1015.1 - - - - - - - - -
22/09:00pm 23.5 E 14 - 1015.0 - - - - - - - - -
22/08:00pm 23.4 E 14 - 1014.8 - - - - - - - - -
22/07:00pm 23.4 E 16 - 1014.2 - - - - - - - - -
22/06:00pm 23.5 E 15 - 1013.8 - - - - - - - - -
22/05:30pm 23.4 E 16 18 1013.5 - - - - - - - - -
22/05:00pm 23.4 E 15 17 1013.3 - - - - - - - - -
22/04:30pm 23.4 E 15 17 1013.0 - - - - - - - - -
22/04:00pm 23.3 E 16 16 1012.9 - - - - - - - - -
22/03:30pm 23.2 E 13 15 1012.9 - - - - - - - - -
22/03:00pm 23.3 E 13 15 1013.0 - - - - - - - - -
22/02:30pm 23.3 E 13 15 1013.1 - - - - - - - - -
22/02:00pm 23.5 E 14 16 1013.2 - - - - - - - - -
22/01:30pm 23.2 E 14 15 1013.4 - - - - - - - - -
22/01:00pm 23.3 E 15 19 1013.6 - - - - - - - - -
22/12:30pm 23.3 E 16 18 1014.1 - - - - - - - - -
22/12:00pm 23.1 E 16 18 1014.4 - - - - - - - - -
22/11:30am 23.2 E 16 19 1014.9 - - - - - - - - -
22/11:00am 23.2 E 17 - 1015.2 - - - - - - - - -
22/10:00am 23.1 E 17 - 1015.5 - - - - - - - - -

Other Formats:

Comma delimited format used in spreadsheet applications
http://www.bom.gov.au/fwo/IDQ60701/IDQ60701.94393.axf

JavaScript Object Notation format (JSON) in row-major order
http://www.bom.gov.au/fwo/IDQ60701/IDQ60701.94393.json